Time;durP1;ratioP1;P1;durP2;ratioP2;P2;SDS_P1;SDS_P2;PMS_P1;PMS_P2;Temp;Humidity;BMP_temperature;BMP_pressure;BME280_temperature;BME280_humidity;BME280_pressure;Samples;Min_cycle;Max_cycle;Signal;HPM_P1;HPM_P2
2021/03/30 00:01:14;;;;;;;14.85;6.32;;;10.70;54.50;;;;;;5117257;28;20102;-36
2021/03/30 00:03:40;;;;;;;15.55;6.97;;;10.60;54.90;;;;;;5117652;28;20073;-37
2021/03/30 00:06:06;;;;;;;12.35;6.63;;;10.50;55.20;;;;;;5117249;28;20425;-36
2021/03/30 00:08:32;;;;;;;19.13;7.05;;;10.40;55.60;;;;;;5117924;28;20031;-36
2021/03/30 00:10:57;;;;;;;11.88;6.68;;;10.30;55.70;;;;;;5117418;28;20031;-36
2021/03/30 00:13:25;;;;;;;14.50;6.38;;;10.50;55.90;;;;;;5116977;28;20024;-36
2021/03/30 00:15:50;;;;;;;14.27;6.95;;;10.50;55.50;;;;;;5117341;28;20102;-36
2021/03/30 00:18:16;;;;;;;14.43;6.78;;;10.40;55.90;;;;;;5117150;28;20539;-36
2021/03/30 00:20:43;;;;;;;16.80;7.25;;;10.30;56.00;;;;;;5116821;28;20498;-36
2021/03/30 00:23:08;;;;;;;16.85;7.75;;;10.30;56.30;;;;;;5117104;28;20029;-36
2021/03/30 00:25:34;;;;;;;16.92;7.45;;;10.20;56.60;;;;;;5117129;27;20098;-36
2021/03/30 00:28:00;;;;;;;11.93;6.65;;;10.20;56.90;;;;;;5116693;28;20019;-36
2021/03/30 00:30:25;;;;;;;15.82;6.88;;;10.10;57.10;;;;;;5117095;28;20062;-36
2021/03/30 00:32:51;;;;;;;14.77;8.18;;;10.00;57.20;;;;;;5116935;28;20031;-36
2021/03/30 00:35:17;;;;;;;12.07;7.00;;;10.10;57.10;;;;;;5116720;28;20110;-36
2021/03/30 00:37:43;;;;;;;11.23;7.32;;;10.20;56.80;;;;;;5115908;28;20061;-36
2021/03/30 00:40:11;;;;;;;14.45;7.18;;;10.20;56.80;;;;;;5116548;28;20023;-36
2021/03/30 00:42:37;;;;;;;12.27;6.78;;;10.10;56.70;;;;;;5116421;28;20106;-36
2021/03/30 00:45:04;;;;;;;19.20;8.18;;;10.20;56.50;;;;;;5116497;28;20030;-36
2021/03/30 00:47:32;;;;;;;18.20;7.95;;;10.10;56.80;;;;;;5116046;28;20497;-36
2021/03/30 00:49:58;;;;;;;15.02;7.90;;;10.10;56.70;;;;;;5116912;28;20020;-36
2021/03/30 00:52:25;;;;;;;15.98;7.93;;;10.10;57.10;;;;;;5116425;27;20497;-36
2021/03/30 00:54:51;;;;;;;16.90;8.35;;;10.00;57.00;;;;;;5116379;28;20409;-36
2021/03/30 00:57:18;;;;;;;14.77;7.22;;;9.90;57.00;;;;;;5114932;28;20023;-36
2021/03/30 00:59:44;;;;;;;16.23;7.68;;;9.80;57.70;;;;;;5114687;28;20376;-36
2021/03/30 01:02:11;;;;;;;15.38;7.90;;;9.80;58.40;;;;;;5115887;28;20019;-36
2021/03/30 01:04:36;;;;;;;18.05;8.93;;;9.80;58.00;;;;;;5116086;28;20486;-36
2021/03/30 01:07:03;;;;;;;13.27;7.72;;;9.80;57.90;;;;;;5115796;27;20043;-36
2021/03/30 01:09:53;;;;;;;20.67;8.25;;;10.00;57.40;;;;;;5114812;28;20024;-36
2021/03/30 01:12:32;;;;;;;15.30;7.80;;;9.80;57.80;;;;;;5115851;28;20027;-36
2021/03/30 01:15:20;;;;;;;17.05;6.72;;;9.60;59.20;;;;;;5116061;28;20056;-36
2021/03/30 01:18:07;;;;;;;16.38;7.90;;;9.50;59.60;;;;;;5116108;28;20034;-36
2021/03/30 01:20:55;;;;;;;11.98;7.18;;;9.50;60.40;;;;;;5115533;28;20024;-36
2021/03/30 01:23:58;;;;;;;15.45;8.02;;;9.50;59.80;;;;;;5115443;28;20534;-36
2021/03/30 01:26:45;;;;;;;15.30;7.82;;;9.50;60.00;;;;;;5080698;28;20031;-36
2021/03/30 01:29:40;;;;;;;17.98;8.85;;;9.40;60.00;;;;;;5115816;28;20024;-36
2021/03/30 01:32:12;;;;;;;13.93;7.95;;;9.50;60.10;;;;;;5115800;28;20031;-36
2021/03/30 01:34:41;;;;;;;16.88;8.57;;;9.30;60.30;;;;;;5115514;28;20073;-36
2021/03/30 01:37:07;;;;;;;21.25;8.10;;;9.20;60.90;;;;;;5115392;28;20119;-36
2021/03/30 01:39:35;;;;;;;14.45;8.63;;;9.20;61.20;;;;;;5113993;28;20383;-36
2021/03/30 01:42:01;;;;;;;14.57;8.43;;;9.10;61.40;;;;;;5114020;28;20015;-36
2021/03/30 01:44:27;;;;;;;10.80;7.13;;;9.20;61.30;;;;;;5115235;28;20024;-35
2021/03/30 01:46:54;;;;;;;15.73;7.03;;;9.20;61.30;;;;;;5113920;28;20023;-36
2021/03/30 01:49:23;;;;;;;16.30;7.55;;;9.20;61.20;;;;;;5115004;28;20491;-36
2021/03/30 01:51:50;;;;;;;13.30;6.72;;;9.20;61.20;;;;;;5115429;28;20035;-35
2021/03/30 01:54:18;;;;;;;16.33;8.00;;;9.10;61.60;;;;;;5115221;28;20445;-35
2021/03/30 01:56:45;;;;;;;13.30;7.60;;;9.10;61.80;;;;;;5115160;28;20103;-36
2021/03/30 01:59:15;;;;;;;13.68;8.35;;;9.00;62.00;;;;;;5115433;28;20084;-35
2021/03/30 02:01:43;;;;;;;17.47;7.87;;;9.20;61.80;;;;;;5115235;28;20031;-36
2021/03/30 02:04:09;;;;;;;20.05;8.00;;;9.10;61.70;;;;;;5114957;28;20261;-36
2021/03/30 02:06:38;;;;;;;13.82;8.00;;;9.10;61.50;;;;;;5115129;28;20494;-36
2021/03/30 02:09:08;;;;;;;19.35;7.78;;;8.90;62.10;;;;;;5113964;28;20026;-35
2021/03/30 02:11:43;;;;;;;13.68;7.30;;;8.90;62.40;;;;;;5114974;28;20026;-45
2021/03/30 02:14:09;;;;;;;15.40;8.02;;;8.80;62.90;;;;;;5115162;28;20027;-36
2021/03/30 02:16:47;;;;;;;19.23;7.93;;;8.80;63.00;;;;;;5115152;28;20034;-35
2021/03/30 02:19:19;;;;;;;14.68;7.70;;;8.80;63.20;;;;;;5114871;28;20028;-36
2021/03/30 02:21:51;;;;;;;16.17;8.57;;;8.80;63.00;;;;;;5114631;28;20036;-36
2021/03/30 02:24:19;;;;;;;26.08;9.35;;;8.80;63.00;;;;;;5114591;28;20019;-36
2021/03/30 02:26:48;;;;;;;15.35;7.93;;;8.80;61.90;;;;;;5114524;28;20023;-36
2021/03/30 02:29:17;;;;;;;15.75;8.25;;;8.80;62.60;;;;;;5113441;28;20023;-36
2021/03/30 02:31:44;;;;;;;23.15;10.52;;;8.80;63.10;;;;;;5114907;28;20032;-36
2021/03/30 02:34:11;;;;;;;14.07;7.57;;;9.00;62.00;;;;;;5114536;28;20052;-36
2021/03/30 02:36:38;;;;;;;18.10;7.47;;;9.10;61.40;;;;;;5114426;28;20057;-37
2021/03/30 02:39:11;;;;;;;13.52;7.38;;;8.90;61.90;;;;;;5114326;28;20153;-36
2021/03/30 02:41:37;;;;;;;19.13;8.10;;;8.80;62.40;;;;;;5114335;28;20429;-36
2021/03/30 02:44:07;;;;;;;15.25;8.43;;;8.70;62.70;;;;;;5114295;28;20020;-36
2021/03/30 02:46:34;;;;;;;18.38;7.75;;;8.70;63.10;;;;;;5113253;28;20042;-36
2021/03/30 02:49:00;;;;;;;15.07;7.70;;;8.70;63.60;;;;;;5114116;28;20044;-36
2021/03/30 02:51:27;;;;;;;14.23;8.07;;;8.70;62.90;;;;;;5114128;28;20031;-36
2021/03/30 02:53:55;;;;;;;13.23;7.35;;;8.80;62.90;;;;;;5114437;28;20023;-36
2021/03/30 02:56:22;;;;;;;13.73;7.85;;;8.70;62.90;;;;;;5112990;28;20106;-36
2021/03/30 02:58:50;;;;;;;13.80;8.43;;;8.60;63.30;;;;;;5112713;28;20023;-36
2021/03/30 03:01:15;;;;;;;14.73;7.50;;;8.50;63.50;;;;;;5114124;28;20030;-36
2021/03/30 03:03:43;;;;;;;14.48;8.23;;;8.50;63.40;;;;;;5113908;28;20015;-36
2021/03/30 03:06:09;;;;;;;13.90;8.05;;;8.60;63.40;;;;;;5113741;28;20066;-36
2021/03/30 03:08:35;;;;;;;18.98;8.55;;;8.80;62.50;;;;;;5113757;28;20103;-36
2021/03/30 03:11:02;;;;;;;21.77;7.80;;;8.60;62.70;;;;;;5113989;28;20031;-37
2021/03/30 03:13:29;;;;;;;17.73;9.68;;;8.80;62.40;;;;;;5113825;28;20457;-36
2021/03/30 03:15:55;;;;;;;18.08;7.57;;;8.70;62.30;;;;;;5112591;28;20107;-36
2021/03/30 03:18:21;;;;;;;14.85;8.15;;;8.60;62.70;;;;;;5095619;28;20078;-36
2021/03/30 03:20:48;;;;;;;17.52;8.68;;;8.60;62.60;;;;;;5113552;28;20030;-36
2021/03/30 03:23:14;;;;;;;22.83;9.20;;;8.60;62.40;;;;;;5114029;28;20036;-36
2021/03/30 03:25:41;;;;;;;15.82;8.15;;;8.70;62.20;;;;;;5112322;28;20019;-37
2021/03/30 03:28:06;;;;;;;17.02;8.18;;;8.80;61.20;;;;;;5113652;28;20047;-36
2021/03/30 03:30:32;;;;;;;20.33;8.27;;;8.70;61.60;;;;;;5113646;28;20050;-37
2021/03/30 03:33:09;;;;;;;16.80;7.85;;;8.70;61.70;;;;;;5115713;28;20024;-37
2021/03/30 03:35:35;;;;;;;16.08;8.27;;;8.50;62.20;;;;;;5117949;28;20023;-37
2021/03/30 03:38:02;;;;;;;20.95;8.98;;;8.60;62.20;;;;;;5118050;27;20028;-36
2021/03/30 03:40:28;;;;;;;17.60;9.40;;;8.30;62.80;;;;;;5118005;28;20114;-36
2021/03/30 03:42:55;;;;;;;17.67;7.72;;;8.60;61.80;;;;;;5118062;28;20023;-37
2021/03/30 03:45:21;;;;;;;22.85;9.00;;;8.50;62.30;;;;;;5117681;28;20045;-36
2021/03/30 03:47:46;;;;;;;17.55;9.40;;;8.50;62.20;;;;;;5116271;28;20048;-36
2021/03/30 03:50:13;;;;;;;14.05;7.65;;;8.30;62.90;;;;;;5117629;28;20379;-36
2021/03/30 03:52:43;;;;;;;22.13;8.73;;;8.30;63.10;;;;;;5117858;27;20035;-36
2021/03/30 03:55:11;;;;;;;19.00;8.85;;;8.20;63.80;;;;;;5117823;28;20034;-37
2021/03/30 03:57:47;;;;;;;22.50;8.40;;;8.10;65.60;;;;;;5116315;28;20417;-36
2021/03/30 04:00:13;;;;;;;24.20;9.02;;;8.00;65.50;;;;;;5117440;27;20506;-36
2021/03/30 04:03:01;;;;;;;19.27;9.27;;;8.10;64.90;;;;;;5117328;28;20031;-36
2021/03/30 04:05:34;;;;;;;22.40;9.90;;;8.10;64.80;;;;;;5117325;28;20024;-36
2021/03/30 04:08:05;;;;;;;19.15;9.50;;;8.00;64.70;;;;;;5117734;28;20016;-36
2021/03/30 04:10:33;;;;;;;21.63;9.02;;;7.90;65.00;;;;;;5117833;28;20028;-36
2021/03/30 04:13:00;;;;;;;18.75;9.68;;;8.00;65.00;;;;;;5117180;28;20057;-36
2021/03/30 04:15:27;;;;;;;23.95;10.02;;;7.80;65.40;;;;;;5117394;28;20034;-36
2021/03/30 04:17:53;;;;;;;26.15;8.77;;;7.80;65.80;;;;;;5117113;28;20028;-36
2021/03/30 04:20:20;;;;;;;17.17;9.50;;;7.80;65.80;;;;;;5117196;28;20043;-36
2021/03/30 04:22:51;;;;;;;15.13;8.65;;;7.80;66.40;;;;;;5117150;28;20020;-36
2021/03/30 04:25:17;;;;;;;29.63;9.85;;;7.70;66.60;;;;;;5117159;28;20070;-36
2021/03/30 04:27:43;;;;;;;18.38;9.80;;;7.70;67.30;;;;;;5116906;28;20043;-36
2021/03/30 04:30:09;;;;;;;23.27;10.05;;;7.70;66.60;;;;;;5116874;28;20023;-36
2021/03/30 04:32:35;;;;;;;21.83;9.35;;;7.80;66.00;;;;;;5116828;28;20047;-36
2021/03/30 04:35:00;;;;;;;24.15;9.75;;;7.90;65.70;;;;;;5115537;28;20030;-36
2021/03/30 04:37:26;;;;;;;15.98;9.20;;;7.80;65.90;;;;;;5116861;28;20102;-36
2021/03/30 04:39:52;;;;;;;18.67;9.43;;;7.80;65.80;;;;;;5117013;28;20402;-36
2021/03/30 04:42:18;;;;;;;21.98;10.07;;;7.70;67.10;;;;;;5116245;28;20114;-36
2021/03/30 04:44:44;;;;;;;18.45;9.50;;;7.80;67.60;;;;;;5116655;28;20107;-36
2021/03/30 04:47:09;;;;;;;21.13;10.70;;;7.70;67.50;;;;;;5116716;28;20042;-36
2021/03/30 04:49:35;;;;;;;18.38;8.55;;;7.60;67.70;;;;;;5116480;28;20403;-36
2021/03/30 04:52:01;;;;;;;18.90;9.07;;;7.50;67.90;;;;;;5117128;28;20019;-36
2021/03/30 04:54:27;;;;;;;23.95;9.70;;;7.50;68.20;;;;;;5116441;28;20051;-36
2021/03/30 04:56:52;;;;;;;18.80;9.60;;;7.50;68.50;;;;;;5116956;28;20032;-36
2021/03/30 04:59:18;;;;;;;22.58;10.23;;;7.40;68.20;;;;;;5116609;28;20114;-36
2021/03/30 05:01:44;;;;;;;19.23;9.30;;;7.40;68.20;;;;;;5116586;28;20063;-36
2021/03/30 05:04:10;;;;;;;22.67;8.55;;;7.40;68.40;;;;;;5116809;28;20023;-37
2021/03/30 05:06:35;;;;;;;20.08;9.95;;;7.30;68.40;;;;;;5116788;27;20019;-37
2021/03/30 05:09:02;;;;;;;19.95;10.75;;;7.30;68.50;;;;;;5116099;28;20031;-36
2021/03/30 05:11:27;;;;;;;19.92;9.90;;;7.30;68.40;;;;;;5116455;28;20479;-36
2021/03/30 05:13:53;;;;;;;21.83;9.43;;;7.30;68.80;;;;;;5116329;28;20027;-37
2021/03/30 05:16:19;;;;;;;17.83;10.52;;;7.30;68.70;;;;;;5116276;28;20059;-36
2021/03/30 05:18:44;;;;;;;24.98;10.05;;;7.30;68.80;;;;;;5115846;28;20070;-37
2021/03/30 05:21:11;;;;;;;20.40;9.85;;;7.20;69.00;;;;;;5115589;28;20331;-37
2021/03/30 05:23:36;;;;;;;25.25;9.82;;;7.20;69.30;;;;;;5114823;28;20028;-36
2021/03/30 05:26:02;;;;;;;27.52;10.52;;;7.30;69.40;;;;;;5115744;28;20020;-36
2021/03/30 05:28:28;;;;;;;21.08;9.15;;;7.60;68.90;;;;;;5116416;28;20020;-36
2021/03/30 05:30:53;;;;;;;17.80;8.88;;;7.70;67.90;;;;;;5116025;28;20077;-36
2021/03/30 05:33:20;;;;;;;22.00;9.73;;;7.40;68.10;;;;;;5115559;28;20024;-37
2021/03/30 05:35:45;;;;;;;18.00;9.00;;;7.30;69.00;;;;;;5115548;28;20020;-37
2021/03/30 05:38:11;;;;;;;22.55;9.15;;;7.30;69.80;;;;;;5115575;28;20023;-38
2021/03/30 05:40:37;;;;;;;19.35;10.07;;;7.30;69.90;;;;;;5115330;28;20027;-37
2021/03/30 05:43:03;;;;;;;21.95;10.15;;;7.30;70.30;;;;;;5115493;28;20030;-37
2021/03/30 05:45:31;;;;;;;22.70;10.85;;;7.30;70.40;;;;;;5115595;28;20023;-37
2021/03/30 05:47:57;;;;;;;18.73;9.15;;;7.30;70.30;;;;;;5115276;28;20048;-38
2021/03/30 05:50:27;;;;;;;17.83;9.43;;;7.30;70.70;;;;;;5116066;28;20032;-37
2021/03/30 05:53:02;;;;;;;17.98;9.77;;;7.30;70.40;;;;;;5114584;28;20027;-37
2021/03/30 05:55:30;;;;;;;21.65;9.98;;;7.30;70.50;;;;;;5115112;28;20039;-37
2021/03/30 05:57:59;;;;;;;20.73;8.70;;;7.30;70.50;;;;;;5115536;28;20019;-37
2021/03/30 06:00:36;;;;;;;24.85;10.30;;;7.30;70.70;;;;;;5115013;28;20493;-37
2021/03/30 06:03:27;;;;;;;21.85;10.38;;;7.40;70.50;;;;;;5115401;28;20102;-37
2021/03/30 06:05:55;;;;;;;28.33;13.18;;;7.50;70.50;;;;;;5110189;28;20023;-37
2021/03/30 06:08:22;;;;;;;21.70;10.50;;;7.70;69.80;;;;;;5114997;28;20031;-37
2021/03/30 06:10:51;;;;;;;22.85;9.98;;;7.70;69.70;;;;;;5115239;28;20111;-37
2021/03/30 06:13:46;;;;;;;16.27;9.73;;;7.70;69.80;;;;;;5114693;28;20030;-37
2021/03/30 06:16:26;;;;;;;23.55;10.95;;;7.70;69.60;;;;;;5114953;28;20168;-36
2021/03/30 06:19:24;;;;;;;24.98;11.30;;;7.80;69.30;;;;;;5115063;28;20034;-37
2021/03/30 06:22:01;;;;;;;28.25;11.82;;;7.80;69.10;;;;;;5091097;28;20036;-36
2021/03/30 06:24:28;;;;;;;26.90;11.18;;;7.90;69.20;;;;;;5114552;28;20064;-37
2021/03/30 06:27:15;;;;;;;22.60;11.90;;;7.90;69.10;;;;;;5113175;28;20429;-37
2021/03/30 06:29:41;;;;;;;32.13;12.10;;;8.10;68.60;;;;;;5114084;28;20491;-38
2021/03/30 06:32:09;;;;;;;37.75;13.95;;;8.10;68.30;;;;;;5113228;28;20467;-37
2021/03/30 06:34:36;;;;;;;32.50;12.82;;;8.20;68.00;;;;;;5113023;28;20103;-37
2021/03/30 06:37:27;;;;;;;31.20;12.02;;;8.30;67.70;;;;;;5114393;28;20420;-38
2021/03/30 06:40:02;;;;;;;24.65;10.75;;;8.40;66.80;;;;;;5114942;28;20024;-38
2021/03/30 06:45:17;;;;;;;27.52;10.98;;;8.80;65.10;;;;;;5114263;28;20015;-37
2021/03/30 06:47:46;;;;;;;24.08;11.82;;;8.90;63.60;;;;;;5114062;28;20129;-38
2021/03/30 06:50:28;;;;;;;24.52;11.80;;;9.10;62.70;;;;;;5113952;27;20028;-37
2021/03/30 06:52:56;;;;;;;22.20;11.10;;;9.20;62.30;;;;;;5112608;28;20024;-37
2021/03/30 06:55:29;;;;;;;21.35;10.63;;;9.30;60.90;;;;;;5113989;27;20020;-37
2021/03/30 06:58:03;;;;;;;21.20;10.77;;;9.50;60.50;;;;;;5113721;28;20027;-37
2021/03/30 07:00:32;;;;;;;27.45;9.93;;;9.70;59.70;;;;;;5114236;28;20110;-37
2021/03/30 07:03:01;;;;;;;25.02;12.32;;;9.80;58.80;;;;;;5112532;28;20047;-37
2021/03/30 07:05:34;;;;;;;26.30;10.77;;;10.20;57.60;;;;;;5113186;28;20027;-37
2021/03/30 07:08:02;;;;;;;24.45;10.77;;;10.40;56.90;;;;;;5113143;28;20379;-37
2021/03/30 07:10:28;;;;;;;21.73;10.55;;;10.60;56.00;;;;;;5113680;28;20066;-38
2021/03/30 07:12:55;;;;;;;23.00;10.55;;;10.70;55.70;;;;;;5113634;28;20023;-40
2021/03/30 07:15:23;;;;;;;21.95;10.27;;;10.80;55.30;;;;;;5113701;28;20063;-39
2021/03/30 07:18:27;;;;;;;20.50;10.27;;;11.00;54.60;;;;;;5113521;28;20055;-38
2021/03/30 07:21:00;;;;;;;25.40;11.20;;;11.30;54.10;;;;;;5106269;28;20395;-38
2021/03/30 07:23:34;;;;;;;25.48;11.30;;;11.60;53.40;;;;;;5113732;28;20043;-37
2021/03/30 07:26:04;;;;;;;26.58;10.80;;;11.70;52.50;;;;;;5112663;28;20039;-37
2021/03/30 07:28:39;;;;;;;21.52;11.05;;;11.90;52.10;;;;;;5113038;28;20132;-38
2021/03/30 07:31:07;;;;;;;22.83;10.77;;;12.30;50.90;;;;;;5113454;28;20475;-36
2021/03/30 07:33:49;;;;;;;23.35;11.07;;;12.20;50.80;;;;;;5113302;28;20422;-37
2021/03/30 07:36:17;;;;;;;31.08;12.57;;;12.40;50.30;;;;;;5113579;28;20024;-37
2021/03/30 07:38:48;;;;;;;28.30;12.95;;;12.70;49.50;;;;;;5113819;28;20468;-38
2021/03/30 07:41:19;;;;;;;27.60;13.23;;;12.80;49.30;;;;;;5113723;28;20100;-38
2021/03/30 07:43:47;;;;;;;21.88;11.65;;;13.00;48.70;;;;;;5112407;28;20161;-38
2021/03/30 07:46:13;;;;;;;24.02;12.15;;;13.00;48.70;;;;;;5112251;28;20165;-41
2021/03/30 07:48:40;;;;;;;27.83;12.95;;;13.10;48.60;;;;;;5113383;28;20075;-38
2021/03/30 07:51:11;;;;;;;28.02;12.07;;;13.30;48.40;;;;;;5113031;28;20098;-38
2021/03/30 07:53:38;;;;;;;27.88;12.18;;;13.30;48.10;;;;;;5113231;28;20024;-38
2021/03/30 07:56:08;;;;;;;27.40;13.07;;;13.70;46.60;;;;;;5113098;28;20024;-38
2021/03/30 07:58:42;;;;;;;24.67;12.55;;;13.80;46.70;;;;;;5111288;28;20371;-37
2021/03/30 08:01:08;;;;;;;33.05;14.35;;;14.00;46.30;;;;;;5112760;28;20024;-37
2021/03/30 08:03:35;;;;;;;39.15;20.35;;;14.20;46.10;;;;;;5112536;28;20081;-37
2021/03/30 08:06:21;;;;;;;35.78;15.52;;;14.40;45.60;;;;;;5112435;28;20020;-37
2021/03/30 08:08:50;;;;;;;27.45;14.40;;;14.50;45.50;;;;;;5113356;28;20042;-37
2021/03/30 08:11:36;;;;;;;31.35;14.80;;;14.60;45.00;;;;;;5112801;28;20077;-38
2021/03/30 08:14:02;;;;;;;26.02;13.90;;;14.80;44.50;;;;;;5110843;28;20092;-38
2021/03/30 08:16:27;;;;;;;30.95;13.93;;;15.20;43.50;;;;;;5112795;28;20023;-37
2021/03/30 08:18:53;;;;;;;40.22;15.50;;;15.30;43.40;;;;;;5114756;28;20077;-38
2021/03/30 08:21:20;;;;;;;35.85;14.57;;;15.40;43.40;;;;;;5116795;28;20063;-39
2021/03/30 08:23:52;;;;;;;28.88;13.00;;;15.80;42.70;;;;;;5116761;28;20027;-39
2021/03/30 08:26:30;;;;;;;34.00;15.23;;;16.10;41.60;;;;;;5116640;28;20068;-38
2021/03/30 08:28:59;;;;;;;32.28;14.90;;;16.30;40.80;;;;;;5116265;28;20518;-38
2021/03/30 08:31:26;;;;;;;25.80;14.82;;;16.40;40.20;;;;;;5116763;28;20019;-38
2021/03/30 08:33:55;;;;;;;38.35;16.67;;;16.70;40.30;;;;;;5114756;28;20024;-38
2021/03/30 08:36:30;;;;;;;28.98;15.70;;;17.20;38.40;;;;;;5116127;28;20016;-37
2021/03/30 08:39:19;;;;;;;32.80;17.08;;;17.10;38.80;;;;;;5116256;28;20160;-38
2021/03/30 08:42:08;;;;;;;29.73;15.88;;;18.30;36.10;;;;;;5110511;27;20036;-39
2021/03/30 08:44:36;;;;;;;50.63;17.75;;;19.30;34.30;;;;;;5116042;28;20107;-38
2021/03/30 08:47:03;;;;;;;33.88;17.58;;;19.50;33.90;;;;;;5114795;28;20387;-38
2021/03/30 08:49:44;;;;;;;30.40;17.70;;;20.30;32.10;;;;;;5115836;28;20075;-38
2021/03/30 08:52:12;;;;;;;38.63;18.33;;;21.10;30.80;;;;;;5116041;28;20076;-39
2021/03/30 08:54:52;;;;;;;35.90;20.92;;;19.80;32.20;;;;;;5115910;28;20024;-38
2021/03/30 08:57:30;;;;;;;32.95;20.25;;;19.30;33.30;;;;;;5115449;28;20023;-38
2021/03/30 08:59:56;;;;;;;28.75;17.90;;;20.30;31.80;;;;;;5114245;28;20027;-43
2021/03/30 09:02:27;;;;;;;32.80;19.67;;;20.80;30.30;;;;;;5115749;28;20023;-37
2021/03/30 09:04:53;;;;;;;37.30;20.70;;;20.30;31.30;;;;;;5114306;28;20107;-38
2021/03/30 09:07:20;;;;;;;34.58;20.50;;;20.70;30.90;;;;;;5116069;28;20035;-40
2021/03/30 09:09:47;;;;;;;34.15;20.90;;;19.90;31.80;;;;;;5115724;28;20376;-37
2021/03/30 09:12:19;;;;;;;37.50;21.13;;;20.50;31.50;;;;;;5116208;28;20024;-38
2021/03/30 09:14:58;;;;;;;33.40;21.67;;;19.60;32.70;;;;;;5116131;28;20448;-38
2021/03/30 09:17:24;;;;;;;40.38;21.77;;;20.50;31.40;;;;;;5114692;28;20429;-38
2021/03/30 09:19:51;;;;;;;37.92;19.77;;;20.60;31.50;;;;;;5114599;28;20084;-38
2021/03/30 09:22:29;;;;;;;41.03;22.02;;;21.10;30.60;;;;;;5115666;28;20092;-38
2021/03/30 09:27:55;;;;;;;38.13;20.40;;;22.80;28.20;;;;;;5115386;28;20034;-40
2021/03/30 09:30:22;;;;;;;35.88;19.70;;;23.70;26.80;;;;;;5114394;28;20028;-39
2021/03/30 09:32:50;;;;;;;39.35;21.73;;;22.60;28.40;;;;;;5115374;28;20024;-40
2021/03/30 09:35:19;;;;;;;37.70;21.45;;;22.80;27.80;;;;;;5115114;28;20391;-38
2021/03/30 09:37:48;;;;;;;34.10;20.38;;;22.00;29.30;;;;;;5113699;28;20069;-38
2021/03/30 09:40:20;;;;;;;34.60;19.88;;;22.20;28.50;;;;;;5115219;28;20051;-39
2021/03/30 09:42:46;;;;;;;35.00;20.40;;;21.90;28.70;;;;;;5115015;28;20027;-38
2021/03/30 09:45:14;;;;;;;33.63;20.00;;;22.70;27.60;;;;;;5113866;28;20031;-37
2021/03/30 09:47:42;;;;;;;34.20;19.45;;;22.70;27.00;;;;;;5114648;28;20133;-38
2021/03/30 09:50:09;;;;;;;31.80;16.60;;;22.40;27.20;;;;;;5113765;28;20023;-38
2021/03/30 09:52:39;;;;;;;31.98;20.38;;;23.60;23.90;;;;;;5114931;28;20027;-38
2021/03/30 09:55:06;;;;;;;29.13;17.55;;;23.90;24.30;;;;;;5115442;28;20031;-38
2021/03/30 09:57:33;;;;;;;27.77;16.23;;;25.00;22.70;;;;;;5114792;28;20092;-38
2021/03/30 10:00:00;;;;;;;25.58;16.30;;;23.90;22.40;;;;;;5115092;28;20066;-38
2021/03/30 10:02:37;;;;;;;27.63;17.20;;;24.30;22.10;;;;;;5113809;28;20024;-38
2021/03/30 10:05:07;;;;;;;28.38;16.15;;;24.40;22.00;;;;;;5114843;28;20532;-38
2021/03/30 10:07:39;;;;;;;27.67;16.58;;;24.30;22.40;;;;;;5113119;28;20024;-38
2021/03/30 10:10:12;;;;;;;30.73;17.20;;;24.00;22.90;;;;;;5114521;28;20417;-39
2021/03/30 10:13:00;;;;;;;31.27;18.10;;;23.30;24.10;;;;;;5114534;28;20192;-38
2021/03/30 10:15:38;;;;;;;29.25;16.42;;;24.80;22.80;;;;;;5114641;28;20098;-37
2021/03/30 10:18:05;;;;;;;32.42;17.95;;;24.30;23.20;;;;;;5114618;28;20027;-38
2021/03/30 10:20:35;;;;;;;31.98;17.90;;;23.80;24.10;;;;;;5114704;28;20027;-39
2021/03/30 10:23:01;;;;;;;27.17;16.98;;;24.60;22.60;;;;;;5114377;28;20027;-38
2021/03/30 10:25:30;;;;;;;27.90;16.60;;;25.40;21.10;;;;;;5113822;28;20356;-38
2021/03/30 10:27:58;;;;;;;24.85;16.77;;;25.70;20.90;;;;;;5114044;28;20023;-38
2021/03/30 10:33:18;;;;;;;22.73;14.48;;;24.60;20.70;;;;;;5113869;28;20377;-38
2021/03/30 10:35:44;;;;;;;27.10;15.15;;;23.60;21.40;;;;;;5113800;28;20391;-37
2021/03/30 10:38:10;;;;;;;25.05;13.40;;;24.30;20.80;;;;;;5113866;28;20031;-37
2021/03/30 10:40:38;;;;;;;24.88;14.35;;;25.80;18.40;;;;;;5112693;28;20034;-38
2021/03/30 10:43:36;;;;;;;26.67;14.55;;;25.20;19.60;;;;;;5114077;28;20573;-38
2021/03/30 10:46:20;;;;;;;21.95;14.10;;;25.30;19.30;;;;;;5090733;28;20103;-37
2021/03/30 10:49:04;;;;;;;26.58;14.18;;;24.70;19.90;;;;;;5113681;28;20085;-39
2021/03/30 10:51:35;;;;;;;23.35;14.80;;;23.30;21.80;;;;;;5113758;27;20027;-40
2021/03/30 10:54:03;;;;;;;26.35;16.10;;;24.30;21.40;;;;;;5113857;28;20058;-38
2021/03/30 10:56:32;;;;;;;25.73;15.57;;;25.40;20.30;;;;;;5114302;28;20031;-39
2021/03/30 10:58:58;;;;;;;27.88;17.35;;;25.70;20.10;;;;;;5113681;28;20063;-38
2021/03/30 11:01:24;;;;;;;27.70;16.15;;;25.50;20.40;;;;;;5112376;28;20047;-39
2021/03/30 11:03:50;;;;;;;28.02;16.95;;;25.60;20.70;;;;;;5112065;28;20032;-38
2021/03/30 11:06:16;;;;;;;26.38;16.10;;;25.70;20.90;;;;;;5112186;28;20024;-38
2021/03/30 11:08:42;;;;;;;25.80;15.57;;;25.40;20.70;;;;;;5112328;28;20447;-38
2021/03/30 11:11:08;;;;;;;24.38;14.30;;;26.60;18.10;;;;;;5112992;28;20463;-40
2021/03/30 11:13:34;;;;;;;25.85;15.60;;;26.00;19.30;;;;;;5112091;28;20038;-38
2021/03/30 11:16:00;;;;;;;24.88;15.18;;;25.20;19.80;;;;;;5113402;28;20080;-40
2021/03/30 11:18:25;;;;;;;25.52;14.70;;;24.80;19.70;;;;;;5112030;28;20405;-38
2021/03/30 11:20:51;;;;;;;23.33;13.77;;;24.60;20.00;;;;;;5113815;28;20106;-38
2021/03/30 11:23:18;;;;;;;22.25;14.00;;;25.10;19.30;;;;;;5113931;28;20401;-39
2021/03/30 11:25:44;;;;;;;27.05;14.40;;;25.30;18.90;;;;;;5112511;28;20024;-38
2021/03/30 11:28:12;;;;;;;25.08;14.27;;;25.90;18.00;;;;;;5113233;28;20069;-39
2021/03/30 11:30:56;;;;;;;23.45;14.10;;;25.00;18.60;;;;;;5112903;28;20092;-39
2021/03/30 11:33:25;;;;;;;22.40;14.70;;;25.10;18.60;;;;;;5113734;28;20023;-38
2021/03/30 11:35:52;;;;;;;30.27;14.23;;;25.60;18.10;;;;;;5113571;28;20423;-39
2021/03/30 11:38:18;;;;;;;21.67;12.50;;;26.00;17.20;;;;;;5113694;28;20273;-38
2021/03/30 11:40:45;;;;;;;25.48;13.70;;;25.70;17.60;;;;;;5115181;28;20024;-38
2021/03/30 11:43:11;;;;;;;25.52;13.00;;;25.40;18.10;;;;;;5115573;28;20521;-39
2021/03/30 11:45:39;;;;;;;19.55;12.80;;;26.20;17.80;;;;;;5119790;28;20072;-38
2021/03/30 11:48:06;;;;;;;19.95;12.00;;;24.70;18.70;;;;;;5111844;28;20526;-41
2021/03/30 11:50:34;;;;;;;22.35;12.02;;;25.40;18.00;;;;;;5111870;28;20024;-38
2021/03/30 11:53:00;;;;;;;27.60;14.70;;;24.30;18.50;;;;;;5111728;28;20030;-37
2021/03/30 11:55:27;;;;;;;31.42;14.82;;;24.80;19.30;;;;;;5115695;28;20335;-38
2021/03/30 11:57:54;;;;;;;22.70;12.65;;;25.90;18.20;;;;;;5117207;28;20031;-39
2021/03/30 12:00:21;;;;;;;24.90;14.02;;;26.70;17.60;;;;;;5117016;28;20077;-38
2021/03/30 12:02:47;;;;;;;22.05;13.43;;;26.40;17.10;;;;;;5117501;28;20037;-38
2021/03/30 12:05:13;;;;;;;22.38;14.27;;;24.40;19.20;;;;;;5116835;28;20023;-38
2021/03/30 12:07:39;;;;;;;23.83;15.27;;;24.60;19.40;;;;;;5116858;28;20039;-38
2021/03/30 12:10:07;;;;;;;24.75;13.77;;;25.10;19.30;;;;;;5116664;28;20064;-38
2021/03/30 12:12:33;;;;;;;25.27;12.48;;;25.80;17.90;;;;;;5116797;28;20095;-39
2021/03/30 12:14:59;;;;;;;24.05;13.93;;;24.50;19.20;;;;;;5115391;28;20042;-38
2021/03/30 12:17:25;;;;;;;20.30;12.43;;;26.10;17.70;;;;;;5117831;28;20020;-38
2021/03/30 12:19:51;;;;;;;23.65;12.68;;;26.50;16.90;;;;;;5116799;28;20364;-38
2021/03/30 12:22:17;;;;;;;24.20;13.65;;;27.00;16.20;;;;;;5117011;28;20106;-37
2021/03/30 12:24:43;;;;;;;18.42;11.70;;;27.40;16.20;;;;;;5116899;28;20026;-38
2021/03/30 12:27:10;;;;;;;27.55;12.65;;;25.70;17.70;;;;;;5116869;28;20128;-39
2021/03/30 12:29:37;;;;;;;22.13;12.20;;;27.40;16.20;;;;;;5116822;28;20032;-38
2021/03/30 12:32:03;;;;;;;20.05;12.63;;;27.00;16.30;;;;;;5116515;28;20337;-38
2021/03/30 12:34:29;;;;;;;17.23;11.80;;;25.70;17.40;;;;;;5115033;28;20038;-38
2021/03/30 12:36:55;;;;;;;20.85;11.35;;;26.30;16.40;;;;;;5116224;28;20034;-39
2021/03/30 12:39:21;;;;;;;20.23;12.85;;;26.10;16.80;;;;;;5116208;28;20077;-38
2021/03/30 12:41:46;;;;;;;25.00;13.43;;;26.30;15.80;;;;;;5116539;28;20024;-39
2021/03/30 12:44:12;;;;;;;19.75;11.23;;;27.10;15.90;;;;;;5116347;28;20023;-40
2021/03/30 12:46:38;;;;;;;19.10;11.88;;;27.10;15.60;;;;;;5116570;28;20027;-39
2021/03/30 12:49:04;;;;;;;20.75;11.45;;;27.10;15.20;;;;;;5115784;28;20048;-39
2021/03/30 12:51:30;;;;;;;19.42;11.40;;;26.30;15.70;;;;;;5115792;28;20020;-40
2021/03/30 12:53:57;;;;;;;21.85;11.60;;;26.90;15.50;;;;;;5116258;28;20031;-40
2021/03/30 12:56:23;;;;;;;19.02;10.07;;;27.60;15.00;;;;;;5116075;28;20020;-39